Time;durP1;ratioP1;P1;durP2;ratioP2;P2;SDS_P1;SDS_P2;PMS_P1;PMS_P2;Temp;Humidity;BMP_temperature;BMP_pressure;BME280_temperature;BME280_humidity;BME280_pressure;Samples;Min_cycle;Max_cycle;Signal;HPM_P1;HPM_P2
2020/12/21 06:53:07;;;;;;;46.92;18.63;;;;;;;;;;5112013;27;20378;-71
2020/12/21 06:55:33;;;;;;;48.58;20.98;;;;;;;;;;5108884;28;20460;-66
2020/12/21 06:57:59;;;;;;;46.08;18.75;;;;;;;;;;5097374;28;20016;-68
2020/12/21 07:00:26;;;;;;;42.25;18.13;;;;;;;;;;5086861;28;20469;-68
2020/12/21 07:02:54;;;;;;;41.28;18.55;;;;;;;;;;5083651;28;20384;-69
2020/12/21 07:05:20;;;;;;;50.40;19.25;;;;;;;;;;5097684;28;20016;-68
2020/12/21 07:07:55;;;;;;;46.60;20.67;;;;;;;;;;5096992;28;20027;-67
2020/12/21 07:10:21;;;;;;;41.90;17.02;;;;;;;;;;5098421;28;20043;-68
2020/12/21 07:12:47;;;;;;;48.75;20.10;;;;;;;;;;5107346;28;20055;-68
2020/12/21 07:15:12;;;;;;;43.15;18.13;;;;;;;;;;5098983;28;20027;-67
2020/12/21 07:17:38;;;;;;;47.78;20.48;;;;;;;;;;5101449;28;20016;-67
2020/12/21 07:20:03;;;;;;;43.92;19.02;;;;;;;;;;5106647;28;20016;-68
2020/12/21 07:22:28;;;;;;;45.85;19.67;;;;;;;;;;5108775;28;20030;-67
2020/12/21 07:24:54;;;;;;;47.63;20.35;;;;;;;;;;5108176;28;20035;-68
2020/12/21 07:27:19;;;;;;;47.67;19.92;;;;;;;;;;5100531;28;20016;-65
2020/12/21 07:32:10;;;;;;;45.05;19.02;;;;;;;;;;5100262;28;20035;-67
2020/12/21 07:34:36;;;;;;;43.50;18.33;;;;;;;;;;5099536;28;20055;-66
2020/12/21 07:37:11;;;;;;;49.35;20.67;;;;;;;;;;5102439;28;20023;-67
2020/12/21 07:39:36;;;;;;;47.72;18.73;;;;;;;;;;5094352;28;20027;-67
2020/12/21 07:42:04;;;;;;;42.17;19.38;;;;;;;;;;5098812;28;20392;-67
2020/12/21 07:44:30;;;;;;;48.13;20.23;;;;;;;;;;5100292;28;20096;-69
2020/12/21 07:47:00;;;;;;;51.25;19.70;;;;;;;;;;5092814;28;20452;-68
2020/12/21 07:49:26;;;;;;;57.55;24.58;;;;;;;;;;5088255;28;20024;-67
2020/12/21 07:51:57;;;;;;;51.47;20.55;;;;;;;;;;5099958;28;20451;-68
2020/12/21 07:54:22;;;;;;;135.63;43.00;;;;;;;;;;5084484;28;20016;-66
2020/12/21 07:56:58;;;;;;;122.93;43.85;;;;;;;;;;5064508;28;20031;-68
2020/12/21 07:59:24;;;;;;;73.25;33.60;;;;;;;;;;5093689;28;20061;-67
2020/12/21 08:01:56;;;;;;;62.13;27.10;;;;;;;;;;5079008;28;20485;-69
2020/12/21 08:04:22;;;;;;;58.50;25.40;;;;;;;;;;5093193;28;20051;-70
2020/12/21 08:06:48;;;;;;;57.42;27.10;;;;;;;;;;5093142;28;20465;-68
2020/12/21 08:09:13;;;;;;;53.72;23.67;;;;;;;;;;5077719;28;20067;-68
2020/12/21 08:11:39;;;;;;;58.58;21.50;;;;;;;;;;5084180;28;20081;-68
2020/12/21 08:14:07;;;;;;;49.85;23.00;;;;;;;;;;5082716;28;20488;-67
2020/12/21 08:16:32;;;;;;;50.33;20.95;;;;;;;;;;5076240;28;20028;-67
2020/12/21 08:18:58;;;;;;;52.15;23.55;;;;;;;;;;5094668;28;20062;-68
2020/12/21 08:21:25;;;;;;;62.38;26.02;;;;;;;;;;5092836;28;20023;-68
2020/12/21 08:23:52;;;;;;;54.50;23.02;;;;;;;;;;5094269;28;20081;-74
2020/12/21 08:26:18;;;;;;;53.30;23.17;;;;;;;;;;5094325;28;20031;-69
2020/12/21 08:28:43;;;;;;;54.97;22.92;;;;;;;;;;5083978;28;20020;-67
2020/12/21 08:31:10;;;;;;;51.55;20.55;;;;;;;;;;5095840;28;20024;-78
2020/12/21 08:33:36;;;;;;;45.05;20.33;;;;;;;;;;5096206;28;20111;-75
2020/12/21 08:36:14;;;;;;;45.80;21.25;;;;;;;;;;5095707;28;20517;-75
2020/12/21 08:38:40;;;;;;;48.92;20.25;;;;;;;;;;5087884;28;20029;-73
2020/12/21 08:41:05;;;;;;;42.38;19.35;;;;;;;;;;5072434;28;20091;-79
2020/12/21 08:43:31;;;;;;;43.20;18.23;;;;;;;;;;5076421;28;20072;-78
2020/12/21 08:45:56;;;;;;;46.42;20.23;;;;;;;;;;5085971;28;20047;-78
2020/12/21 08:48:22;;;;;;;44.28;18.35;;;;;;;;;;5078905;28;20035;-76
2020/12/21 08:50:47;;;;;;;43.13;18.73;;;;;;;;;;5077228;28;20047;-75
2020/12/21 08:53:13;;;;;;;40.95;18.23;;;;;;;;;;5097442;28;20464;-71
2020/12/21 08:55:38;;;;;;;45.08;19.20;;;;;;;;;;5082455;28;20012;-72
2020/12/21 08:58:04;;;;;;;44.38;19.52;;;;;;;;;;5069065;28;20042;-71
2020/12/21 09:00:30;;;;;;;46.50;21.20;;;;;;;;;;5084470;28;20049;-73
2020/12/21 09:02:55;;;;;;;39.25;18.05;;;;;;;;;;5074217;28;20017;-73
2020/12/21 09:05:21;;;;;;;41.50;17.63;;;;;;;;;;5080397;28;20103;-72
2020/12/21 09:07:46;;;;;;;40.20;18.20;;;;;;;;;;5055356;28;20464;-71
2020/12/21 09:10:12;;;;;;;42.33;18.50;;;;;;;;;;5073652;28;20062;-72
2020/12/21 09:12:37;;;;;;;47.63;18.30;;;;;;;;;;5056018;28;20028;-71
2020/12/21 09:15:03;;;;;;;44.92;19.23;;;;;;;;;;5068047;28;20022;-71
2020/12/21 09:17:28;;;;;;;36.42;16.20;;;;;;;;;;5073239;28;20362;-72
2020/12/21 09:19:54;;;;;;;35.50;16.58;;;;;;;;;;5071873;28;20637;-71
2020/12/21 09:22:20;;;;;;;36.63;16.67;;;;;;;;;;5073328;28;20039;-71
2020/12/21 09:24:48;;;;;;;42.65;18.60;;;;;;;;;;5073229;28;20100;-70
2020/12/21 09:27:14;;;;;;;36.08;15.00;;;;;;;;;;5072655;28;20376;-71
2020/12/21 09:29:39;;;;;;;49.00;20.42;;;;;;;;;;5073462;28;20092;-72
2020/12/21 09:32:05;;;;;;;37.15;16.27;;;;;;;;;;5072701;28;20485;-71
2020/12/21 09:34:30;;;;;;;40.22;16.73;;;;;;;;;;5072735;28;20066;-70
2020/12/21 09:36:56;;;;;;;38.40;15.50;;;;;;;;;;5072897;28;20029;-70
2020/12/21 09:39:23;;;;;;;34.20;15.43;;;;;;;;;;5072781;28;20020;-70
2020/12/21 09:41:51;;;;;;;37.30;17.92;;;;;;;;;;5072366;28;20044;-70
2020/12/21 09:44:16;;;;;;;42.17;18.17;;;;;;;;;;5073125;28;20035;-73
2020/12/21 09:46:41;;;;;;;40.35;16.77;;;;;;;;;;5072173;28;20013;-72
2020/12/21 09:49:07;;;;;;;60.67;22.27;;;;;;;;;;5072522;28;20013;-72
2020/12/21 09:51:32;;;;;;;41.22;17.38;;;;;;;;;;5070991;28;20052;-72
2020/12/21 09:53:58;;;;;;;36.47;15.60;;;;;;;;;;5072479;28;20477;-72
2020/12/21 09:56:24;;;;;;;40.05;18.33;;;;;;;;;;5054310;28;20085;-71
2020/12/21 09:58:49;;;;;;;36.22;15.25;;;;;;;;;;5071439;28;20020;-71
2020/12/21 10:01:15;;;;;;;32.08;14.45;;;;;;;;;;5071144;28;20139;-72
2020/12/21 10:03:41;;;;;;;35.97;15.18;;;;;;;;;;5071318;28;20017;-71
2020/12/21 10:06:08;;;;;;;38.17;16.50;;;;;;;;;;5073600;28;20029;-78
2020/12/21 10:08:33;;;;;;;46.50;20.00;;;;;;;;;;5076209;28;20107;-76
2020/12/21 10:10:59;;;;;;;42.22;16.05;;;;;;;;;;5076493;28;20104;-78
2020/12/21 10:13:24;;;;;;;33.58;15.05;;;;;;;;;;5080171;28;20025;-77
2020/12/21 10:15:49;;;;;;;34.70;15.05;;;;;;;;;;5068033;28;20047;-77
2020/12/21 10:18:15;;;;;;;33.50;15.75;;;;;;;;;;5073978;28;20031;-79
2020/12/21 10:20:42;;;;;;;34.95;15.27;;;;;;;;;;5073054;28;20704;-75
2020/12/21 10:23:08;;;;;;;30.42;14.38;;;;;;;;;;5075939;28;20473;-76
2020/12/21 10:25:33;;;;;;;32.47;15.00;;;;;;;;;;5072429;28;20055;-69
2020/12/21 10:27:58;;;;;;;32.25;15.57;;;;;;;;;;5069651;28;20021;-69
2020/12/21 10:30:24;;;;;;;40.38;14.80;;;;;;;;;;5057422;28;20027;-68
2020/12/21 10:32:49;;;;;;;36.00;16.42;;;;;;;;;;5061479;28;20051;-69
2020/12/21 10:35:15;;;;;;;33.10;15.20;;;;;;;;;;5054548;28;20048;-67
2020/12/21 10:37:40;;;;;;;36.42;14.20;;;;;;;;;;5090657;28;20388;-69
2020/12/21 10:40:06;;;;;;;35.22;15.95;;;;;;;;;;5091580;28;20055;-69
2020/12/21 10:42:31;;;;;;;28.60;14.18;;;;;;;;;;5091737;28;20112;-81
2020/12/21 10:44:57;;;;;;;34.47;15.73;;;;;;;;;;5071428;28;20025;-79
2020/12/21 10:47:23;;;;;;;31.83;14.30;;;;;;;;;;5056187;28;20532;-78
2020/12/21 10:49:48;;;;;;;33.17;15.85;;;;;;;;;;5068724;28;20062;-76
2020/12/21 10:52:14;;;;;;;32.33;15.60;;;;;;;;;;5080342;28;20176;-76
2020/12/21 10:54:39;;;;;;;33.78;16.70;;;;;;;;;;5081947;28;20024;-75
2020/12/21 10:57:06;;;;;;;36.70;17.95;;;;;;;;;;5070045;28;20031;-75
2020/12/21 10:59:33;;;;;;;36.22;17.38;;;;;;;;;;5080779;28;20173;-77
2020/12/21 11:01:58;;;;;;;36.00;17.08;;;;;;;;;;5078209;28;20112;-76
2020/12/21 11:04:24;;;;;;;33.80;15.85;;;;;;;;;;5093116;28;20488;-77
2020/12/21 11:06:49;;;;;;;39.05;17.85;;;;;;;;;;5084739;28;20025;-76
2020/12/21 11:09:14;;;;;;;32.83;15.88;;;;;;;;;;5063450;28;20021;-77
2020/12/21 11:11:40;;;;;;;30.67;15.52;;;;;;;;;;5075783;28;20538;-75
2020/12/21 11:14:05;;;;;;;44.55;20.92;;;;;;;;;;5079781;28;20389;-74
2020/12/21 11:16:31;;;;;;;32.08;15.65;;;;;;;;;;5077976;28;20020;-76
2020/12/21 11:18:57;;;;;;;31.83;13.98;;;;;;;;;;5077777;28;20033;-81
2020/12/21 11:21:23;;;;;;;33.28;14.68;;;;;;;;;;5057472;28;20023;-77
2020/12/21 11:23:48;;;;;;;32.85;14.90;;;;;;;;;;5071304;28;20032;-78
2020/12/21 11:26:14;;;;;;;33.85;15.27;;;;;;;;;;5071386;28;20032;-76
2020/12/21 11:28:40;;;;;;;34.80;15.13;;;;;;;;;;5054192;28;20048;-77
2020/12/21 11:31:06;;;;;;;32.92;15.63;;;;;;;;;;5075489;28;20025;-74
2020/12/21 11:33:31;;;;;;;41.30;16.63;;;;;;;;;;5073007;28;20055;-78
2020/12/21 11:35:57;;;;;;;37.63;15.82;;;;;;;;;;5072121;28;20025;-80
2020/12/21 11:38:22;;;;;;;36.13;16.67;;;;;;;;;;5057377;28;20158;-78
2020/12/21 11:40:48;;;;;;;32.90;14.77;;;;;;;;;;5081889;28;20021;-78
2020/12/21 11:43:14;;;;;;;34.90;14.13;;;;;;;;;;5078018;28;20070;-77
2020/12/21 11:45:40;;;;;;;33.30;15.63;;;;;;;;;;5091412;28;20020;-78
2020/12/21 11:48:06;;;;;;;38.22;15.80;;;;;;;;;;5087633;28;20020;-79
2020/12/21 11:50:31;;;;;;;29.88;14.40;;;;;;;;;;5077500;28;20066;-80
2020/12/21 11:52:57;;;;;;;35.05;14.63;;;;;;;;;;5090975;28;20083;-77
2020/12/21 11:55:22;;;;;;;32.65;13.90;;;;;;;;;;5088756;28;20016;-69
2020/12/21 11:57:48;;;;;;;31.20;13.52;;;;;;;;;;5071703;28;20025;-68
2020/12/21 12:00:13;;;;;;;32.10;14.32;;;;;;;;;;5092828;28;20099;-68
2020/12/21 12:02:38;;;;;;;30.70;13.27;;;;;;;;;;5094282;28;20099;-68
2020/12/21 12:05:04;;;;;;;39.97;15.13;;;;;;;;;;5094828;28;20533;-68
2020/12/21 12:07:29;;;;;;;29.65;14.15;;;;;;;;;;5093217;28;20023;-68
2020/12/21 12:09:55;;;;;;;29.77;13.73;;;;;;;;;;5093086;28;20077;-67
2020/12/21 12:12:21;;;;;;;30.48;13.57;;;;;;;;;;5093952;28;20050;-68
2020/12/21 12:14:47;;;;;;;30.08;15.13;;;;;;;;;;5092923;28;20027;-67
2020/12/21 12:17:13;;;;;;;28.33;13.10;;;;;;;;;;5093714;28;20017;-67
2020/12/21 12:19:38;;;;;;;30.65;16.27;;;;;;;;;;5093168;28;20019;-67
2020/12/21 12:22:04;;;;;;;33.97;16.75;;;;;;;;;;5092756;28;20141;-67
2020/12/21 12:24:30;;;;;;;32.75;14.88;;;;;;;;;;5092482;28;20472;-68
2020/12/21 12:26:56;;;;;;;30.80;15.43;;;;;;;;;;5092769;28;20027;-67
2020/12/21 12:29:23;;;;;;;38.53;16.38;;;;;;;;;;5094212;28;20017;-68
2020/12/21 12:31:49;;;;;;;31.27;15.30;;;;;;;;;;5092241;28;20028;-68
2020/12/21 12:34:14;;;;;;;32.42;15.45;;;;;;;;;;5092705;28;20032;-68
2020/12/21 12:36:42;;;;;;;34.70;14.57;;;;;;;;;;5094279;28;20429;-68
2020/12/21 12:39:08;;;;;;;38.85;15.02;;;;;;;;;;5093479;28;20216;-68
2020/12/21 12:41:37;;;;;;;36.92;15.30;;;;;;;;;;5080206;28;20013;-67
2020/12/21 12:44:03;;;;;;;;;;;;;;;;;;5052530;28;20028;-67
2020/12/21 12:46:28;;;;;;;39.27;15.77;;;;;;;;;;5063325;28;19904;-67
2020/12/21 12:48:53;;;;;;;33.80;15.02;;;;;;;;;;5073480;28;20263;-67
2020/12/21 12:51:19;;;;;;;39.30;16.52;;;;;;;;;;5074998;28;20091;-68
2020/12/21 12:53:44;;;;;;;34.38;17.15;;;;;;;;;;5088207;28;20036;-66
2020/12/21 12:56:10;;;;;;;38.10;18.98;;;;;;;;;;5078644;28;20066;-68
2020/12/21 12:58:36;;;;;;;43.25;17.02;;;;;;;;;;5084815;28;20032;-70
2020/12/21 13:01:01;;;;;;;48.58;16.85;;;;;;;;;;5078038;28;20023;-69
2020/12/21 13:03:26;;;;;;;40.70;18.05;;;;;;;;;;5086749;28;20095;-73
2020/12/21 13:05:52;;;;;;;38.58;17.45;;;;;;;;;;5081063;28;20056;-72
2020/12/21 13:08:18;;;;;;;38.72;19.13;;;;;;;;;;5091241;28;20103;-73
2020/12/21 13:10:43;;;;;;;51.90;20.55;;;;;;;;;;5074076;28;20473;-65
2020/12/21 13:13:11;;;;;;;37.15;16.92;;;;;;;;;;5078633;28;20125;-65
2020/12/21 13:15:36;;;;;;;40.92;18.67;;;;;;;;;;5082010;28;20032;-72
2020/12/21 13:18:03;;;;;;;40.17;17.48;;;;;;;;;;5082070;28;20515;-72
2020/12/21 13:20:28;;;;;;;36.28;16.65;;;;;;;;;;5060802;28;20024;-71
2020/12/21 13:22:54;;;;;;;32.60;16.38;;;;;;;;;;5082407;28;20354;-69
2020/12/21 13:25:19;;;;;;;38.88;20.45;;;;;;;;;;5075872;28;20488;-68
2020/12/21 13:27:45;;;;;;;35.75;17.05;;;;;;;;;;5072386;28;20021;-72
2020/12/21 13:30:14;;;;;;;46.53;18.60;;;;;;;;;;5051757;28;20013;-73
2020/12/21 13:32:40;;;;;;;40.88;17.58;;;;;;;;;;5053067;28;20032;-72
2020/12/21 13:35:05;;;;;;;35.58;17.05;;;;;;;;;;5052243;28;20032;-72
2020/12/21 13:37:31;;;;;;;39.17;19.35;;;;;;;;;;5051898;28;20012;-74
2020/12/21 13:39:56;;;;;;;37.30;17.67;;;;;;;;;;5056188;28;20048;-72
2020/12/21 13:42:22;;;;;;;50.70;19.77;;;;;;;;;;5080486;28;20017;-73
2020/12/21 13:44:47;;;;;;;46.90;20.25;;;;;;;;;;5076883;28;20020;-73
2020/12/21 13:47:13;;;;;;;39.60;18.13;;;;;;;;;;5085267;28;20031;-74
2020/12/21 13:49:38;;;;;;;35.90;18.23;;;;;;;;;;5092833;28;20020;-74
2020/12/21 13:52:04;;;;;;;40.85;18.25;;;;;;;;;;5070895;28;20082;-71
2020/12/21 13:54:29;;;;;;;42.40;17.77;;;;;;;;;;5072651;28;20031;-72
2020/12/21 13:56:55;;;;;;;45.00;16.45;;;;;;;;;;5064654;28;20026;-73
2020/12/21 13:59:20;;;;;;;43.53;19.80;;;;;;;;;;5091579;28;20020;-69
2020/12/21 14:01:46;;;;;;;39.47;18.83;;;;;;;;;;5090496;28;20033;-70
2020/12/21 14:04:11;;;;;;;44.95;20.27;;;;;;;;;;5092679;28;20472;-72
2020/12/21 14:06:36;;;;;;;42.75;19.70;;;;;;;;;;5092678;28;20016;-69
2020/12/21 14:09:02;;;;;;;44.63;18.05;;;;;;;;;;5092493;28;20543;-74
2020/12/21 14:11:28;;;;;;;44.90;20.92;;;;;;;;;;5091358;28;20094;-71
2020/12/21 14:13:54;;;;;;;42.78;18.63;;;;;;;;;;5074275;28;20119;-73
2020/12/21 14:16:20;;;;;;;42.42;18.65;;;;;;;;;;5091359;28;20035;-73
2020/12/21 14:18:47;;;;;;;46.17;19.27;;;;;;;;;;5074391;28;20143;-71
2020/12/21 14:21:13;;;;;;;46.45;19.85;;;;;;;;;;5092439;28;20034;-72
2020/12/21 14:23:38;;;;;;;43.03;20.13;;;;;;;;;;5091744;28;20469;-72
2020/12/21 14:26:04;;;;;;;50.05;21.58;;;;;;;;;;5091925;28;20023;-78
2020/12/21 14:28:30;;;;;;;42.28;19.60;;;;;;;;;;5090897;28;20020;-74
2020/12/21 14:30:55;;;;;;;46.17;22.73;;;;;;;;;;5090457;28;20028;-68
2020/12/21 14:33:22;;;;;;;41.72;18.48;;;;;;;;;;5092490;28;20027;-69
2020/12/21 14:35:48;;;;;;;37.33;18.55;;;;;;;;;;5090374;28;20073;-63
2020/12/21 14:38:13;;;;;;;41.22;19.23;;;;;;;;;;5086220;28;20012;-69
2020/12/21 14:40:39;;;;;;;44.58;19.58;;;;;;;;;;5074643;28;20016;-64
2020/12/21 14:43:04;;;;;;;46.25;20.98;;;;;;;;;;5079449;28;20108;-65
2020/12/21 14:45:30;;;;;;;42.42;20.25;;;;;;;;;;5088908;28;20020;-68
2020/12/21 14:47:55;;;;;;;50.30;22.08;;;;;;;;;;5064575;28;20233;-67
2020/12/21 14:50:21;;;;;;;38.47;17.73;;;;;;;;;;5090917;28;20194;-66
2020/12/21 14:52:56;;;;;;;42.65;19.02;;;;;;;;;;5072971;28;20040;-62
2020/12/21 14:55:21;;;;;;;56.28;26.70;;;;;;;;;;5091718;28;20051;-70
2020/12/21 14:57:47;;;;;;;38.97;19.23;;;;;;;;;;5073269;28;20133;-70
2020/12/21 15:00:12;;;;;;;43.05;19.17;;;;;;;;;;5091352;28;20403;-68
2020/12/21 15:02:38;;;;;;;45.08;18.38;;;;;;;;;;5090623;28;20048;-65
2020/12/21 15:05:04;;;;;;;47.83;21.42;;;;;;;;;;5073751;28;20452;-65
2020/12/21 15:07:39;;;;;;;54.35;21.40;;;;;;;;;;5090169;28;20020;-66
2020/12/21 15:10:05;;;;;;;45.17;18.77;;;;;;;;;;5091267;28;20107;-64
2020/12/21 15:12:32;;;;;;;51.45;20.75;;;;;;;;;;5073563;28;20050;-69
2020/12/21 15:14:58;;;;;;;41.80;18.65;;;;;;;;;;5095496;28;20472;-68
2020/12/21 15:17:24;;;;;;;41.75;20.02;;;;;;;;;;5094090;28;20026;-63
2020/12/21 15:19:50;;;;;;;48.08;21.00;;;;;;;;;;5086862;28;20077;-68
2020/12/21 15:22:15;;;;;;;47.83;20.92;;;;;;;;;;5078905;28;20037;-67
2020/12/21 15:24:41;;;;;;;53.03;22.80;;;;;;;;;;5075085;28;20582;-69
2020/12/21 15:27:06;;;;;;;52.60;22.88;;;;;;;;;;5086459;28;20023;-66
2020/12/21 15:31:38;;;;;;;51.33;22.42;;;;;;;;;;5097899;27;975075;-73
2020/12/21 15:34:05;;;;;;;51.15;20.55;;;;;;;;;;5074745;28;20146;-72
2020/12/21 15:36:30;;;;;;;47.65;23.20;;;;;;;;;;5109923;28;20020;-73
2020/12/21 15:38:56;;;;;;;52.10;24.80;;;;;;;;;;5091621;28;20368;-72
2020/12/21 15:41:23;;;;;;;45.17;22.42;;;;;;;;;;5110063;28;20041;-72
2020/12/21 15:43:48;;;;;;;48.55;21.48;;;;;;;;;;5109800;28;20020;-70
2020/12/21 15:46:14;;;;;;;51.17;23.65;;;;;;;;;;5109164;28;20468;-71
2020/12/21 15:48:40;;;;;;;47.00;22.35;;;;;;;;;;5109874;28;20069;-73
2020/12/21 15:51:06;;;;;;;46.60;22.13;;;;;;;;;;5109559;28;20024;-73
2020/12/21 15:53:31;;;;;;;51.60;22.42;;;;;;;;;;5091544;28;20044;-73
2020/12/21 15:55:57;;;;;;;54.72;23.00;;;;;;;;;;5091260;28;20018;-73
2020/12/21 15:58:22;;;;;;;59.10;24.70;;;;;;;;;;5109659;28;20015;-73
2020/12/21 16:00:47;;;;;;;54.95;24.40;;;;;;;;;;5091333;28;20034;-70
2020/12/21 16:03:13;;;;;;;58.63;24.55;;;;;;;;;;5109671;28;20030;-72
2020/12/21 16:05:39;;;;;;;53.08;23.85;;;;;;;;;;5109477;28;20016;-72
2020/12/21 16:08:04;;;;;;;69.45;28.23;;;;;;;;;;5091165;28;20042;-71
2020/12/21 16:10:30;;;;;;;52.15;24.23;;;;;;;;;;5109508;28;20536;-73
2020/12/21 16:12:55;;;;;;;55.47;24.67;;;;;;;;;;5109347;28;20141;-73
2020/12/21 16:15:21;;;;;;;55.22;24.73;;;;;;;;;;5090744;28;20024;-73
2020/12/21 16:17:46;;;;;;;48.20;22.67;;;;;;;;;;5109432;28;20015;-71
2020/12/21 16:20:13;;;;;;;51.92;24.50;;;;;;;;;;5091091;28;20090;-72
2020/12/21 16:22:38;;;;;;;58.55;27.67;;;;;;;;;;5109420;28;20027;-74
2020/12/21 16:25:05;;;;;;;70.55;29.42;;;;;;;;;;5109350;28;20020;-73
2020/12/21 16:27:31;;;;;;;66.28;29.33;;;;;;;;;;5109116;28;20028;-72
2020/12/21 16:29:57;;;;;;;71.38;28.27;;;;;;;;;;5108798;28;20051;-72
2020/12/21 16:32:23;;;;;;;64.32;27.25;;;;;;;;;;5109029;28;20106;-72
2020/12/21 16:34:49;;;;;;;69.07;29.90;;;;;;;;;;5090708;28;20114;-71
2020/12/21 16:37:15;;;;;;;68.25;27.73;;;;;;;;;;5073916;28;20020;-72
2020/12/21 16:39:40;;;;;;;64.97;28.95;;;;;;;;;;5108860;28;20134;-74
2020/12/21 16:42:06;;;;;;;57.03;26.90;;;;;;;;;;5100060;28;20020;-72
2020/12/21 16:44:32;;;;;;;57.28;26.27;;;;;;;;;;5095420;28;20065;-73
2020/12/21 16:46:57;;;;;;;56.80;26.42;;;;;;;;;;5076420;28;20051;-72
2020/12/21 16:49:23;;;;;;;54.30;25.88;;;;;;;;;;5077428;28;20058;-72
2020/12/21 16:51:49;;;;;;;58.95;27.20;;;;;;;;;;5095020;28;20020;-72
2020/12/21 16:54:15;;;;;;;59.13;26.65;;;;;;;;;;5076469;28;20015;-74
2020/12/21 16:56:40;;;;;;;60.83;28.67;;;;;;;;;;5076608;28;20388;-74
2020/12/21 16:59:06;;;;;;;62.80;28.58;;;;;;;;;;5094887;28;20008;-74
2020/12/21 17:01:32;;;;;;;72.47;31.90;;;;;;;;;;5077027;28;20166;-73
2020/12/21 17:03:57;;;;;;;66.38;31.73;;;;;;;;;;5094603;28;20027;-71
2020/12/21 17:06:23;;;;;;;66.03;31.42;;;;;;;;;;5094760;28;20020;-72
2020/12/21 17:08:48;;;;;;;61.25;27.10;;;;;;;;;;5094677;28;20012;-72
2020/12/21 17:11:15;;;;;;;65.00;27.90;;;;;;;;;;5076590;28;20028;-72
2020/12/21 17:13:41;;;;;;;57.25;26.42;;;;;;;;;;5094699;28;20421;-73
2020/12/21 17:16:06;;;;;;;58.55;25.80;;;;;;;;;;5059000;28;20036;-73
2020/12/21 17:18:32;;;;;;;59.72;27.20;;;;;;;;;;5076720;28;20060;-73
2020/12/21 17:20:57;;;;;;;67.10;29.98;;;;;;;;;;5076296;28;20043;-72
2020/12/21 17:23:23;;;;;;;64.82;29.38;;;;;;;;;;5076457;28;20058;-72
2020/12/21 17:25:48;;;;;;;65.55;27.85;;;;;;;;;;5076348;28;20016;-71
2020/12/21 17:28:14;;;;;;;66.72;28.58;;;;;;;;;;5076136;28;20092;-72
2020/12/21 17:30:39;;;;;;;66.70;29.00;;;;;;;;;;5094090;28;20048;-74
2020/12/21 17:33:05;;;;;;;64.00;28.38;;;;;;;;;;5094367;28;20088;-72
2020/12/21 17:35:30;;;;;;;63.80;27.80;;;;;;;;;;5076260;28;20373;-72
2020/12/21 17:37:56;;;;;;;59.83;28.50;;;;;;;;;;5094357;28;20479;-72
2020/12/21 17:40:21;;;;;;;71.40;31.13;;;;;;;;;;5094101;28;20353;-73
2020/12/21 17:42:47;;;;;;;65.18;29.67;;;;;;;;;;5093847;28;20024;-71
2020/12/21 17:45:12;;;;;;;69.03;30.80;;;;;;;;;;5093518;28;20099;-72
2020/12/21 17:47:38;;;;;;;65.15;29.27;;;;;;;;;;5094081;28;20024;-73
2020/12/21 17:50:03;;;;;;;65.93;32.30;;;;;;;;;;5058895;28;20469;-72
2020/12/21 17:52:29;;;;;;;62.95;27.92;;;;;;;;;;5075916;28;20108;-73
2020/12/21 17:54:54;;;;;;;67.75;29.38;;;;;;;;;;5093111;28;20456;-73
2020/12/21 17:57:19;;;;;;;63.85;29.25;;;;;;;;;;5075701;28;20047;-72
2020/12/21 17:59:45;;;;;;;68.68;30.65;;;;;;;;;;5075762;28;20048;-73
2020/12/21 18:02:10;;;;;;;77.75;33.55;;;;;;;;;;5075497;28;20023;-72
2020/12/21 18:04:37;;;;;;;61.63;30.52;;;;;;;;;;5093851;28;20027;-72
2020/12/21 18:07:02;;;;;;;65.85;30.30;;;;;;;;;;5093586;28;20108;-71
2020/12/21 18:09:28;;;;;;;67.15;29.02;;;;;;;;;;5093856;28;20099;-72
2020/12/21 18:11:53;;;;;;;70.65;32.00;;;;;;;;;;5093583;28;20377;-72
2020/12/21 18:14:19;;;;;;;59.55;27.77;;;;;;;;;;5093429;28;20054;-72
2020/12/21 18:16:44;;;;;;;61.22;27.75;;;;;;;;;;5074574;28;20020;-72
2020/12/21 18:19:10;;;;;;;52.42;25.33;;;;;;;;;;5075422;28;20111;-72
2020/12/21 18:21:35;;;;;;;64.20;28.42;;;;;;;;;;5093370;28;20012;-73
2020/12/21 18:24:00;;;;;;;63.47;27.33;;;;;;;;;;5075174;28;20027;-72
2020/12/21 18:26:26;;;;;;;55.53;27.65;;;;;;;;;;5075412;28;20413;-71
2020/12/21 18:28:51;;;;;;;63.60;28.30;;;;;;;;;;5093238;28;20059;-72
2020/12/21 18:31:17;;;;;;;61.72;28.13;;;;;;;;;;5054878;28;20056;-72
2020/12/21 18:33:42;;;;;;;62.65;27.73;;;;;;;;;;5073063;28;20020;-74
2020/12/21 18:36:08;;;;;;;67.70;30.00;;;;;;;;;;5071557;28;20061;-72
2020/12/21 18:38:33;;;;;;;70.28;27.88;;;;;;;;;;5071666;28;20048;-73
2020/12/21 18:41:01;;;;;;;63.67;27.98;;;;;;;;;;5072738;28;20020;-72
2020/12/21 18:43:26;;;;;;;62.10;27.50;;;;;;;;;;5054804;28;20103;-72
2020/12/21 18:45:52;;;;;;;67.10;30.45;;;;;;;;;;5071896;28;20444;-72
2020/12/21 18:48:17;;;;;;;63.65;27.02;;;;;;;;;;5073006;28;20019;-72
2020/12/21 18:50:46;;;;;;;61.15;29.02;;;;;;;;;;5072632;28;20025;-73
2020/12/21 18:53:11;;;;;;;61.05;29.63;;;;;;;;;;5072893;28;20142;-72
2020/12/21 18:55:37;;;;;;;58.33;27.63;;;;;;;;;;5072603;28;20062;-74
2020/12/21 18:58:02;;;;;;;69.55;30.48;;;;;;;;;;5070689;28;20111;-73
2020/12/21 19:00:28;;;;;;;62.58;31.00;;;;;;;;;;5072984;28;20021;-72
2020/12/21 19:02:53;;;;;;;69.20;33.22;;;;;;;;;;5072576;28;20020;-71
2020/12/21 19:05:18;;;;;;;65.18;30.17;;;;;;;;;;5072437;28;20032;-71
2020/12/21 19:07:44;;;;;;;66.78;29.50;;;;;;;;;;5072454;28;20017;-71
2020/12/21 19:10:09;;;;;;;55.92;27.52;;;;;;;;;;5071092;28;20058;-71
2020/12/21 19:12:41;;;;;;;61.40;29.20;;;;;;;;;;5072550;28;20457;-72
2020/12/21 19:15:06;;;;;;;63.13;27.42;;;;;;;;;;5071874;28;20048;-71
2020/12/21 19:17:33;;;;;;;59.47;27.98;;;;;;;;;;5071295;28;20588;-73
2020/12/21 19:19:58;;;;;;;59.63;27.33;;;;;;;;;;5070944;28;20032;-71
2020/12/21 19:22:23;;;;;;;65.20;30.33;;;;;;;;;;5071072;28;20016;-72
2020/12/21 19:24:49;;;;;;;63.65;28.58;;;;;;;;;;5072211;28;20025;-70
2020/12/21 19:27:14;;;;;;;73.32;32.30;;;;;;;;;;5071050;28;20089;-71
2020/12/21 19:29:42;;;;;;;69.38;31.00;;;;;;;;;;5055718;28;20024;-73
2020/12/21 19:32:07;;;;;;;73.63;32.22;;;;;;;;;;5092172;28;20024;-72
2020/12/21 19:34:33;;;;;;;75.72;33.13;;;;;;;;;;5074482;28;20365;-72
2020/12/21 19:36:59;;;;;;;73.97;33.20;;;;;;;;;;5057429;28;20149;-72
2020/12/21 19:39:27;;;;;;;75.93;34.20;;;;;;;;;;5074455;28;20468;-72
2020/12/21 19:41:52;;;;;;;74.53;33.20;;;;;;;;;;5091900;28;20027;-72
2020/12/21 19:44:17;;;;;;;67.50;32.90;;;;;;;;;;5074038;28;20020;-72
2020/12/21 19:46:43;;;;;;;67.50;30.15;;;;;;;;;;5091582;28;20012;-71
2020/12/21 19:49:08;;;;;;;77.72;33.85;;;;;;;;;;5091725;28;20357;-71
2020/12/21 19:51:34;;;;;;;74.53;32.90;;;;;;;;;;5092226;28;20039;-73
2020/12/21 19:53:59;;;;;;;87.53;36.40;;;;;;;;;;5057091;28;20051;-73
2020/12/21 19:56:25;;;;;;;76.57;33.03;;;;;;;;;;5074235;28;20046;-71
2020/12/21 19:58:51;;;;;;;65.97;30.50;;;;;;;;;;5057298;28;20502;-72
2020/12/21 20:01:16;;;;;;;72.63;31.90;;;;;;;;;;5092207;28;20015;-71
2020/12/21 20:03:42;;;;;;;69.15;30.77;;;;;;;;;;5073956;28;20095;-71
2020/12/21 20:06:07;;;;;;;73.35;31.55;;;;;;;;;;5091707;28;20032;-71
2020/12/21 20:08:33;;;;;;;63.55;29.02;;;;;;;;;;5091901;28;20528;-72
2020/12/21 20:10:59;;;;;;;65.72;29.48;;;;;;;;;;5073721;28;20066;-70
2020/12/21 20:13:25;;;;;;;59.80;27.80;;;;;;;;;;5091975;28;20020;-72
2020/12/21 20:15:50;;;;;;;60.30;28.95;;;;;;;;;;5073255;28;20039;-72
2020/12/21 20:18:15;;;;;;;67.78;29.55;;;;;;;;;;5077179;28;20024;-72
2020/12/21 20:20:41;;;;;;;58.10;26.55;;;;;;;;;;5077674;28;20439;-73
2020/12/21 20:23:06;;;;;;;65.38;27.73;;;;;;;;;;5095441;28;20078;-72
2020/12/21 20:25:33;;;;;;;66.32;27.58;;;;;;;;;;5077832;28;20019;-72
2020/12/21 20:27:58;;;;;;;64.72;27.63;;;;;;;;;;5095204;28;20380;-72
2020/12/21 20:30:24;;;;;;;68.78;29.38;;;;;;;;;;5077370;28;20063;-72
2020/12/21 20:32:53;;;;;;;70.40;30.33;;;;;;;;;;5095541;28;20025;-71
2020/12/21 20:35:18;;;;;;;72.82;31.15;;;;;;;;;;5077444;28;20074;-72
2020/12/21 20:37:45;;;;;;;78.60;31.77;;;;;;;;;;5095332;28;20020;-72
2020/12/21 20:40:10;;;;;;;67.13;31.17;;;;;;;;;;5076977;28;20023;-72
2020/12/21 20:42:36;;;;;;;73.30;31.38;;;;;;;;;;5077128;28;20027;-73
2020/12/21 20:45:02;;;;;;;68.70;30.92;;;;;;;;;;5077369;28;20035;-72
2020/12/21 20:47:28;;;;;;;79.80;32.90;;;;;;;;;;5076809;28;20012;-72
2020/12/21 20:49:54;;;;;;;76.72;33.53;;;;;;;;;;5076868;28;20472;-72
2020/12/21 20:52:19;;;;;;;79.10;33.35;;;;;;;;;;5095142;28;20031;-73
2020/12/21 20:54:44;;;;;;;74.80;32.03;;;;;;;;;;5095358;28;20442;-73
2020/12/21 20:57:10;;;;;;;68.57;31.77;;;;;;;;;;5077025;28;20137;-74
2020/12/21 20:59:35;;;;;;;64.18;29.75;;;;;;;;;;5076965;28;20023;-73
2020/12/21 21:02:02;;;;;;;73.75;30.48;;;;;;;;;;5094783;28;20105;-72
2020/12/21 21:04:27;;;;;;;72.55;30.25;;;;;;;;;;5076730;28;20035;-71